الصفحة الرئيسية
METAR-TAF:

METAR-TAF

مطار :

مطار طنجة ابن بطوطة الدولي

طنجة, المغرب

دائرة عرض: 35-44N, خط طول: 005-54W, ارتفاع: 19 متر

مراقبة الطقس الحالي

تاريخ ووقت الإصدار 23 دقيقة قبل الساعة 03:30UTC
ريح 20 عقدة من الشرق/الشمال الشرقي
درجة الحرارة 20°درجة مئوية
الرطوبة 73%
ضغط 1016 hPa
الرؤية 10 كم أو أكثر
الغيوم لا تقل 1500 م ولا وجود لمزنة ركامية السحاب الأسود

METAR: GMTT 270330Z 07020KT CAVOK 20/15 Q1016 NOSIG

زمن: 04:53 (03:53 UTC)

توقعات

تاريخ ووقت الإصدار 4ساعات و 53 دقيقة قبل الساعة 23:00UTC
التوقعات صالحة من27 الساعة 00 UTC إلى 28 الساعة 06 UTC
ريح 25 عقدة من الشرق تتزايد حتى 36 عقدة
الرؤية 10 كم أو أكثر
الغيوم لا تقل 1500 م ولا وجود لمزنة ركامية السحاب الأسود

TAF: GMTT 262300Z 2700/2806 08025G36KT CAVOK

أرصاد الطقس والتوقعات من أكثر من 4000 مطار (تقارير الطقس للمطار METAR والتنبؤ بالطقس بالمطارTAF).

المحطات المتاحة هي النقط الصفراء والحمراء على الخريطة.

حرك المؤشر فوق النقطة لمعرفة اسم المحطة.

ثم انقر لمعرفة أرصاد وتوقعات الطقس.

لتغيير الخارطة: اضغط على الأزرار الخضراء مع رمز الصليب الأسود للتكبير. على الزر الأخضر مع شرطة للتصغير، أو على الأسهم الخضراء للخرائط المجاورة.


METAR-TAF: